createdAt,value
2018-05-04T00:01:30.904Z,99.90
2018-05-04T00:03:58.488Z,99.90
2018-05-04T00:06:26.253Z,99.90
2018-05-04T00:08:54.102Z,99.90
2018-05-04T00:11:21.733Z,99.90
2018-05-04T00:13:49.281Z,99.90
2018-05-04T00:16:17.294Z,99.90
2018-05-04T00:18:45.299Z,99.90
2018-05-04T00:21:13.068Z,99.90
2018-05-04T00:23:41.382Z,99.90
2018-05-04T00:26:09.316Z,99.90
2018-05-04T00:28:37.041Z,99.90
2018-05-04T00:31:04.733Z,99.90
2018-05-04T00:33:33.080Z,99.90
2018-05-04T00:36:01.040Z,99.90
2018-05-04T00:38:28.778Z,99.90
2018-05-04T00:40:56.368Z,99.90
2018-05-04T00:43:24.076Z,99.90
2018-05-04T00:45:52.391Z,99.90
2018-05-04T00:48:20.180Z,99.90
2018-05-04T00:50:48.304Z,99.90
2018-05-04T00:53:16.065Z,99.90
2018-05-04T00:55:43.757Z,99.90
2018-05-04T00:58:11.580Z,99.90
2018-05-04T01:00:39.296Z,99.90
2018-05-04T01:03:07.140Z,99.90
2018-05-04T01:05:34.740Z,99.90
2018-05-04T01:08:02.757Z,99.90
2018-05-04T01:10:30.525Z,99.90
2018-05-04T01:12:58.154Z,99.90
2018-05-04T01:15:25.706Z,99.90
2018-05-04T01:17:54.056Z,99.90
2018-05-04T01:20:21.963Z,99.90
2018-05-04T01:22:49.669Z,99.90
2018-05-04T01:25:17.813Z,99.90
2018-05-04T01:27:45.373Z,99.90
2018-05-04T01:30:13.267Z,99.90
2018-05-04T01:32:42.031Z,99.90
2018-05-04T01:35:10.020Z,99.90
2018-05-04T01:37:37.725Z,99.90
2018-05-04T01:40:06.072Z,99.90
2018-05-04T01:42:33.890Z,99.90
2018-05-04T01:45:01.527Z,99.90
2018-05-04T01:47:29.244Z,99.90
2018-05-04T01:49:57.372Z,99.90
2018-05-04T01:52:24.976Z,99.90
2018-05-04T01:54:52.796Z,99.90
2018-05-04T01:57:20.605Z,99.90
2018-05-04T01:59:48.152Z,99.90
2018-05-04T02:02:15.743Z,99.90
2018-05-04T02:04:43.408Z,99.90
2018-05-04T02:07:11.092Z,99.90
2018-05-04T02:09:39.555Z,99.90
2018-05-04T02:12:07.265Z,99.90
2018-05-04T02:14:35.405Z,99.90
2018-05-04T02:17:03.083Z,99.90
2018-05-04T02:19:31.149Z,99.90
2018-05-04T02:21:58.701Z,99.90
2018-05-04T02:24:27.204Z,99.90
2018-05-04T02:26:55.083Z,99.90
2018-05-04T02:29:22.634Z,99.90
2018-05-04T02:31:50.628Z,99.90
2018-05-04T02:34:18.343Z,99.90
2018-05-04T02:36:45.955Z,99.90
2018-05-04T02:39:13.704Z,99.90
2018-05-04T02:41:41.295Z,99.90
2018-05-04T02:44:09.247Z,99.90
2018-05-04T02:46:37.111Z,99.90
2018-05-04T02:49:04.763Z,99.90
2018-05-04T02:51:32.472Z,99.90
2018-05-04T02:54:00.726Z,99.90
2018-05-04T02:56:28.496Z,99.90
2018-05-04T02:58:56.233Z,99.90
2018-05-04T03:01:23.944Z,99.90
2018-05-04T03:03:51.581Z,99.90
2018-05-04T03:06:19.700Z,99.90
2018-05-04T03:08:47.497Z,99.90
2018-05-04T03:11:15.140Z,99.90
2018-05-04T03:13:42.688Z,99.90
2018-05-04T03:16:10.681Z,99.90
2018-05-04T03:18:38.403Z,99.90
2018-05-04T03:21:05.954Z,99.90
2018-05-04T03:23:34.084Z,99.90
2018-05-04T03:26:01.636Z,99.90
2018-05-04T03:28:29.677Z,99.90
2018-05-04T03:30:57.685Z,99.90
2018-05-04T03:33:25.634Z,99.90
2018-05-04T03:35:53.179Z,99.90
2018-05-04T03:38:21.120Z,99.90
2018-05-04T03:40:48.809Z,99.90
2018-05-04T03:43:16.534Z,99.90
2018-05-04T03:45:44.423Z,99.90
2018-05-04T03:48:13.288Z,99.90
2018-05-04T03:50:41.288Z,99.90
2018-05-04T03:53:09.135Z,99.90
2018-05-04T03:55:37.228Z,99.90
2018-05-04T03:58:16.729Z,99.90
2018-05-04T04:04:02.928Z,99.90
2018-05-04T04:06:30.852Z,99.90
2018-05-04T04:08:58.523Z,99.90
2018-05-04T04:11:26.390Z,99.90
2018-05-04T04:13:54.227Z,99.90
2018-05-04T04:16:21.916Z,99.90
2018-05-04T04:18:49.576Z,99.90
2018-05-04T04:21:17.293Z,99.90
2018-05-04T04:23:44.877Z,99.90
2018-05-04T04:26:12.740Z,99.90
2018-05-04T04:28:40.686Z,99.90
2018-05-04T04:31:08.295Z,99.90
2018-05-04T04:33:36.200Z,99.90
2018-05-04T04:36:04.591Z,99.90
2018-05-04T04:38:32.141Z,99.90
2018-05-04T04:41:00.047Z,99.90
2018-05-04T04:43:28.121Z,99.90
2018-05-04T04:45:56.201Z,99.90
2018-05-04T04:48:23.747Z,99.90
2018-05-04T04:50:51.296Z,99.90
2018-05-04T04:53:19.020Z,99.90
2018-05-04T04:55:47.344Z,99.90
2018-05-04T04:58:14.983Z,99.90
2018-05-04T05:00:42.605Z,99.90
2018-05-04T05:03:11.058Z,99.90
2018-05-04T05:05:38.616Z,99.90
2018-05-04T05:08:06.263Z,99.90
2018-05-04T05:10:33.846Z,99.90
2018-05-04T05:13:01.496Z,99.90
2018-05-04T05:15:29.096Z,99.90
2018-05-04T05:17:56.967Z,99.90
2018-05-04T05:20:24.836Z,99.90
2018-05-04T05:22:52.421Z,99.90
2018-05-04T05:25:19.971Z,99.90
2018-05-04T05:27:48.560Z,99.90
2018-05-04T05:30:16.168Z,99.90
2018-05-04T05:32:43.712Z,99.90
2018-05-04T05:35:11.283Z,99.90
2018-05-04T05:37:39.643Z,99.90
2018-05-04T05:40:07.194Z,99.90
2018-05-04T05:42:34.936Z,99.90
2018-05-04T05:45:02.663Z,99.90
2018-05-04T05:47:30.337Z,99.90
2018-05-04T05:49:57.892Z,99.90
2018-05-04T05:52:25.908Z,99.90
2018-05-04T05:54:53.575Z,99.90
2018-05-04T05:57:21.277Z,99.90
2018-05-04T05:59:49.095Z,99.90
2018-05-04T06:02:16.704Z,99.90
2018-05-04T06:04:44.258Z,99.90
2018-05-04T06:07:12.747Z,99.90
2018-05-04T06:09:40.301Z,99.90
2018-05-04T06:12:08.340Z,99.90
2018-05-04T06:14:36.061Z,99.90
2018-05-04T06:17:03.871Z,99.90
2018-05-04T06:19:31.513Z,99.90
2018-05-04T06:21:59.391Z,99.90
2018-05-04T06:24:26.951Z,99.90
2018-05-04T06:26:56.118Z,99.90
2018-05-04T06:29:23.833Z,99.90
2018-05-04T06:31:52.149Z,99.90
2018-05-04T06:34:19.737Z,99.90
2018-05-04T06:36:47.564Z,99.90
2018-05-04T06:39:15.164Z,99.90
2018-05-04T06:41:43.537Z,99.90
2018-05-04T06:44:11.154Z,99.90
2018-05-04T06:46:38.860Z,99.90
2018-05-04T06:49:06.679Z,99.90
2018-05-04T06:51:34.627Z,99.90
2018-05-04T06:54:02.329Z,99.90
2018-05-04T06:56:30.124Z,99.90
2018-05-04T06:58:57.818Z,99.90
2018-05-04T07:01:25.586Z,99.90
2018-05-04T07:03:53.230Z,99.90
2018-05-04T07:06:20.974Z,99.90
2018-05-04T07:08:48.970Z,99.90
2018-05-04T07:11:16.868Z,99.90
2018-05-04T07:13:44.481Z,99.90
2018-05-04T07:16:12.617Z,99.90
2018-05-04T07:18:40.313Z,99.90
2018-05-04T07:21:08.661Z,99.90
2018-05-04T07:23:36.403Z,99.90
2018-05-04T07:26:03.993Z,99.90
2018-05-04T07:28:33.626Z,99.90
2018-05-04T07:31:02.224Z,99.90
2018-05-04T07:33:29.844Z,99.90
2018-05-04T07:35:57.408Z,99.90
2018-05-04T07:38:25.113Z,99.90
2018-05-04T07:40:52.676Z,99.90
2018-05-04T07:43:20.229Z,99.90
2018-05-04T07:45:47.818Z,99.90
2018-05-04T07:48:15.460Z,99.90
2018-05-04T07:50:43.029Z,99.90
2018-05-04T07:53:10.701Z,99.90
2018-05-04T07:55:38.253Z,99.90
2018-05-04T07:58:05.842Z,99.90
2018-05-04T08:00:35.112Z,99.90
2018-05-04T08:03:03.134Z,99.90
2018-05-04T08:05:31.452Z,99.90
2018-05-04T08:07:59.225Z,99.90
2018-05-04T08:10:26.905Z,99.90
2018-05-04T08:12:54.467Z,99.90
2018-05-04T08:15:22.818Z,99.90
2018-05-04T08:17:50.373Z,99.90
2018-05-04T08:20:17.940Z,99.90
2018-05-04T08:22:45.531Z,99.90
2018-05-04T08:25:14.291Z,99.90
2018-05-04T08:27:42.137Z,99.90
2018-05-04T08:30:09.725Z,99.90
2018-05-04T08:32:37.444Z,99.90
2018-05-04T08:35:05.218Z,99.90
2018-05-04T08:37:33.353Z,99.90
2018-05-04T08:40:01.400Z,99.90
2018-05-04T08:42:28.957Z,99.90
2018-05-04T08:44:56.544Z,99.90
2018-05-04T08:47:24.116Z,99.90
2018-05-04T08:49:51.892Z,99.90
2018-05-04T08:52:19.658Z,99.90
2018-05-04T08:54:47.215Z,99.90
2018-05-04T08:57:15.188Z,99.90
2018-05-04T08:59:42.820Z,99.90
2018-05-04T09:02:11.264Z,99.90
2018-05-04T09:04:39.074Z,99.90
2018-05-04T09:07:06.812Z,99.90
2018-05-04T09:09:35.620Z,99.90
2018-05-04T09:12:03.183Z,99.90
2018-05-04T09:14:30.771Z,99.90
2018-05-04T09:16:58.465Z,99.90
2018-05-04T09:19:26.027Z,99.90
2018-05-04T09:21:54.419Z,99.90
2018-05-04T09:24:22.768Z,99.90
2018-05-04T09:26:50.503Z,99.90
2018-05-04T09:29:18.101Z,99.90
2018-05-04T09:31:45.927Z,99.90
2018-05-04T09:34:13.731Z,99.90
2018-05-04T09:36:41.385Z,99.90
2018-05-04T09:39:09.052Z,99.90
2018-05-04T09:41:36.708Z,99.90
2018-05-04T09:44:04.400Z,99.90
2018-05-04T09:46:32.724Z,99.90
2018-05-04T09:49:00.519Z,99.90
2018-05-04T09:51:28.177Z,99.90
2018-05-04T09:53:55.750Z,99.90
2018-05-04T09:56:23.511Z,99.90
2018-05-04T09:58:52.163Z,99.90
2018-05-04T10:01:20.004Z,99.90
2018-05-04T10:03:47.567Z,99.90
2018-05-04T10:06:15.602Z,99.90
2018-05-04T10:08:43.916Z,99.90
2018-05-04T10:11:11.908Z,99.90
2018-05-04T10:13:39.500Z,99.90
2018-05-04T10:16:07.290Z,99.90
2018-05-04T10:18:35.860Z,99.90
2018-05-04T10:21:03.617Z,99.90
2018-05-04T10:23:31.176Z,99.90
2018-05-04T10:25:58.741Z,99.90
2018-05-04T10:28:26.584Z,99.90
2018-05-04T10:30:55.042Z,99.90
2018-05-04T10:33:23.918Z,99.90
2018-05-04T10:35:51.541Z,99.90
2018-05-04T10:38:19.165Z,99.90
2018-05-04T10:40:46.759Z,99.90
2018-05-04T10:43:14.339Z,99.90
2018-05-04T10:45:41.899Z,99.90
2018-05-04T10:48:09.453Z,99.90
2018-05-04T10:50:37.052Z,99.90
2018-05-04T10:53:06.223Z,99.90
2018-05-04T10:55:33.784Z,99.90
2018-05-04T10:58:01.608Z,99.90
2018-05-04T11:00:29.408Z,99.90
2018-05-04T11:02:56.956Z,99.90
2018-05-04T11:05:24.993Z,99.90
2018-05-04T11:07:52.787Z,99.90
2018-05-04T11:10:20.516Z,99.90
2018-05-04T11:12:48.876Z,99.90
2018-05-04T11:15:17.427Z,99.90
2018-05-04T11:17:45.299Z,99.90
2018-05-04T11:20:14.853Z,99.90
2018-05-04T11:22:42.420Z,99.90
2018-05-04T11:25:10.025Z,99.90
2018-05-04T11:27:37.627Z,99.90
2018-05-04T11:30:05.195Z,99.90
2018-05-04T11:32:32.792Z,99.90
2018-05-04T11:35:00.443Z,99.90
2018-05-04T11:37:28.323Z,99.90
2018-05-04T11:39:56.041Z,99.90
2018-05-04T11:42:23.802Z,99.90
2018-05-04T11:44:51.353Z,99.90
2018-05-04T11:47:19.695Z,99.90
2018-05-04T11:49:47.253Z,99.90
2018-05-04T11:52:14.845Z,99.90
2018-05-04T11:54:42.528Z,99.90
2018-05-04T11:57:10.232Z,99.90
2018-05-04T11:59:37.820Z,99.90
2018-05-04T12:02:05.399Z,99.90
2018-05-04T12:04:33.025Z,99.90
2018-05-04T12:07:00.940Z,99.90
2018-05-04T12:09:28.509Z,99.90
2018-05-04T12:11:56.070Z,99.90
2018-05-04T12:14:23.900Z,99.90
2018-05-04T12:16:52.223Z,99.90
2018-05-04T12:19:19.773Z,99.90
2018-05-04T12:21:48.359Z,99.90
2018-05-04T12:24:16.260Z,99.90
2018-05-04T12:26:44.380Z,99.90
2018-05-04T12:29:11.991Z,99.90
2018-05-04T12:31:39.545Z,99.90
2018-05-04T12:34:07.108Z,99.90
2018-05-04T12:36:34.695Z,99.10
2018-05-04T12:39:02.279Z,99.10
2018-05-04T12:41:29.834Z,99.20
2018-05-04T12:43:57.434Z,97.90
2018-05-04T12:46:24.997Z,99.50
2018-05-04T12:48:52.564Z,99.60
2018-05-04T12:51:21.608Z,98.30
2018-05-04T12:53:49.189Z,97.70
2018-05-04T12:56:17.009Z,99.90
2018-05-04T12:58:44.625Z,98.40
2018-05-04T13:01:12.211Z,99.70
2018-05-04T13:03:39.760Z,99.80
2018-05-04T13:06:08.420Z,96.30
2018-05-04T13:08:36.023Z,96.20
2018-05-04T13:11:03.586Z,95.20
2018-05-04T13:13:31.362Z,97.80
2018-05-04T13:15:59.064Z,95.30
2018-05-04T13:18:26.615Z,96.00
2018-05-04T13:20:54.451Z,94.20
2018-05-04T13:23:22.259Z,94.10
2018-05-04T13:25:49.812Z,99.00
2018-05-04T13:28:17.552Z,96.20
2018-05-04T13:30:45.097Z,94.20
2018-05-04T13:33:12.867Z,91.60
2018-05-04T13:35:40.548Z,93.40
2018-05-04T13:38:08.108Z,94.00
2018-05-04T13:40:35.650Z,93.30
2018-05-04T13:43:03.395Z,95.00
2018-05-04T13:45:30.947Z,94.30
2018-05-04T13:47:58.606Z,96.30
2018-05-04T13:50:26.205Z,93.40
2018-05-04T13:52:53.760Z,94.70
2018-05-04T13:55:21.320Z,94.60
2018-05-04T13:57:49.394Z,94.00
2018-05-04T14:00:17.108Z,92.60
2018-05-04T14:02:44.704Z,92.00
2018-05-04T14:05:12.323Z,94.60
2018-05-04T14:07:39.895Z,92.70
2018-05-04T14:10:07.449Z,93.40
2018-05-04T14:12:35.256Z,93.90
2018-05-04T14:15:03.125Z,95.10
2018-05-04T14:17:30.675Z,93.50
2018-05-04T14:19:58.501Z,93.80
2018-05-04T14:22:26.053Z,95.90
2018-05-04T14:24:53.779Z,94.40
2018-05-04T14:27:21.420Z,95.40
2018-05-04T14:29:49.079Z,94.20
2018-05-04T14:32:16.632Z,92.00
2018-05-04T14:34:44.257Z,93.10
2018-05-04T14:37:11.832Z,92.40
2018-05-04T14:39:39.510Z,94.90
2018-05-04T14:42:07.111Z,92.00
2018-05-04T14:44:34.707Z,93.00
2018-05-04T14:47:02.479Z,94.30
2018-05-04T14:49:30.371Z,93.50
2018-05-04T14:51:58.219Z,95.30
2018-05-04T14:54:25.770Z,94.80
2018-05-04T14:56:53.372Z,96.30
2018-05-04T14:59:21.192Z,94.10
2018-05-04T15:01:49.158Z,95.00
2018-05-04T15:04:16.761Z,94.40
2018-05-04T15:06:44.596Z,95.20
2018-05-04T15:09:12.153Z,96.40
2018-05-04T15:11:39.754Z,94.30
2018-05-04T15:14:07.653Z,94.50
2018-05-04T15:16:35.250Z,95.00
2018-05-04T15:19:02.972Z,98.40
2018-05-04T15:21:30.648Z,99.40
2018-05-04T15:23:58.312Z,97.90
2018-05-04T15:26:26.293Z,96.40
2018-05-04T15:28:53.956Z,97.80
2018-05-04T15:31:21.711Z,99.40
2018-05-04T15:33:49.434Z,98.00
2018-05-04T15:36:17.138Z,98.20
2018-05-04T15:38:44.740Z,99.20
2018-05-04T15:41:12.356Z,99.80
2018-05-04T15:43:40.326Z,99.90
2018-05-04T15:46:07.882Z,99.90
2018-05-04T15:48:41.056Z,99.90
2018-05-04T15:51:14.336Z,99.90
2018-05-04T15:53:42.236Z,99.90
2018-05-04T15:56:09.816Z,99.90
2018-05-04T15:58:37.396Z,99.90
2018-05-04T16:01:05.168Z,99.90
2018-05-04T16:03:33.177Z,99.90
2018-05-04T16:06:00.821Z,99.90
2018-05-04T16:08:29.185Z,99.90
2018-05-04T16:10:56.741Z,99.90
2018-05-04T16:13:25.224Z,99.90
2018-05-04T16:15:52.830Z,99.90
2018-05-04T16:18:20.476Z,99.90
2018-05-04T16:20:48.131Z,99.90
2018-05-04T16:23:15.728Z,99.90
2018-05-04T16:25:43.329Z,99.90
2018-05-04T16:28:11.664Z,99.90
2018-05-04T16:30:39.265Z,99.90
2018-05-04T16:33:06.832Z,99.90
2018-05-04T16:35:34.398Z,99.90
2018-05-04T16:38:02.588Z,99.90
2018-05-04T16:40:30.161Z,99.90
2018-05-04T16:42:57.833Z,99.90
2018-05-04T16:45:25.543Z,99.90
2018-05-04T16:50:58.940Z,99.90
2018-05-04T16:53:26.491Z,99.90
2018-05-04T16:55:54.088Z,99.90
2018-05-04T16:58:21.871Z,99.90
2018-05-04T17:00:49.443Z,99.90
2018-05-04T17:03:17.292Z,99.90
2018-05-04T17:05:44.915Z,99.90
2018-05-04T17:08:12.480Z,99.90
2018-05-04T17:10:40.937Z,99.90
2018-05-04T17:13:09.292Z,99.90
2018-05-04T17:15:36.917Z,99.90
2018-05-04T17:18:04.492Z,99.90
2018-05-04T17:20:32.105Z,99.90
2018-05-04T17:23:00.008Z,99.90
2018-05-04T17:25:27.992Z,99.90
2018-05-04T17:27:55.600Z,99.90
2018-05-04T17:30:23.952Z,99.90
2018-05-04T17:32:51.653Z,99.90
2018-05-04T17:35:19.500Z,99.90
2018-05-04T17:37:47.088Z,99.90
2018-05-04T17:40:14.661Z,99.90
2018-05-04T17:42:42.286Z,99.90
2018-05-04T17:45:10.627Z,99.90
2018-05-04T17:47:38.200Z,99.90
2018-05-04T17:50:05.803Z,99.90
2018-05-04T17:52:33.386Z,99.90
2018-05-04T17:55:00.986Z,99.90
2018-05-04T17:57:28.829Z,99.90
2018-05-04T17:59:56.383Z,99.90
2018-05-04T18:02:23.948Z,99.90
2018-05-04T18:04:51.857Z,99.90
2018-05-04T18:07:20.172Z,99.90
2018-05-04T18:09:47.772Z,99.90
2018-05-04T18:12:16.321Z,99.90
2018-05-04T18:14:44.266Z,99.90
2018-05-04T18:17:11.980Z,99.90
2018-05-04T18:19:40.437Z,99.90
2018-05-04T18:22:08.004Z,99.90
2018-05-04T18:24:36.531Z,99.90
2018-05-04T18:27:04.240Z,99.90
2018-05-04T18:29:31.857Z,99.90
2018-05-04T18:31:59.569Z,99.90
2018-05-04T18:34:27.189Z,99.90
2018-05-04T18:36:54.919Z,99.90
2018-05-04T18:39:23.536Z,99.90
2018-05-04T18:41:51.305Z,99.90
2018-05-04T18:44:19.066Z,99.90
2018-05-04T18:46:46.947Z,99.90
2018-05-04T18:49:14.855Z,99.90
2018-05-04T18:51:43.673Z,99.90
2018-05-04T18:54:11.640Z,99.90
2018-05-04T18:56:39.416Z,99.90
2018-05-04T18:59:07.109Z,99.90
2018-05-04T19:01:35.156Z,99.90
2018-05-04T19:04:02.784Z,99.90
2018-05-04T19:06:30.362Z,99.90
2018-05-04T19:08:58.128Z,99.90
2018-05-04T19:11:25.791Z,99.90
2018-05-04T19:13:53.664Z,99.90
2018-05-04T19:16:21.369Z,99.90
2018-05-04T19:18:49.802Z,99.90
2018-05-04T19:21:17.767Z,99.90
2018-05-04T19:23:45.345Z,99.90
2018-05-04T19:26:13.393Z,99.90
2018-05-04T19:28:40.989Z,99.90
2018-05-04T19:31:08.849Z,99.90
2018-05-04T19:33:36.512Z,99.90
2018-05-04T19:36:04.143Z,99.90
2018-05-04T19:38:32.112Z,99.90
2018-05-04T19:40:59.988Z,99.90
2018-05-04T19:43:28.668Z,99.90
2018-05-04T19:45:56.617Z,99.90
2018-05-04T19:48:24.343Z,99.90
2018-05-04T19:50:52.298Z,99.90
2018-05-04T19:53:20.015Z,99.90
2018-05-04T19:55:47.601Z,99.90
2018-05-04T19:58:15.160Z,99.90
2018-05-04T20:00:42.828Z,99.90
2018-05-04T20:03:10.448Z,99.90
2018-05-04T20:05:38.218Z,99.90
2018-05-04T20:08:06.297Z,99.90
2018-05-04T20:10:33.895Z,99.90
2018-05-04T20:13:01.611Z,99.90
2018-05-04T20:15:29.857Z,99.90
2018-05-04T20:17:57.767Z,99.90
2018-05-04T20:20:25.411Z,99.90
2018-05-04T20:22:53.108Z,99.90
2018-05-04T20:25:20.925Z,99.90
2018-05-04T20:27:49.035Z,99.90
2018-05-04T20:30:17.064Z,99.90
2018-05-04T20:32:44.658Z,99.90
2018-05-04T20:35:12.288Z,99.90
2018-05-04T20:37:40.287Z,99.90
2018-05-04T20:40:09.029Z,99.90
2018-05-04T20:42:36.947Z,99.90
2018-05-04T20:45:05.510Z,99.90
2018-05-04T20:47:33.276Z,99.90
2018-05-04T20:50:00.861Z,99.90
2018-05-04T20:52:28.488Z,99.90
2018-05-04T20:54:56.258Z,99.90
2018-05-04T20:57:23.834Z,99.90
2018-05-04T20:59:51.878Z,99.90
2018-05-04T21:02:19.455Z,99.90
2018-05-04T21:04:47.017Z,99.90
2018-05-04T21:07:15.180Z,99.90
2018-05-04T21:09:43.052Z,99.90
2018-05-04T21:12:10.641Z,99.90
2018-05-04T21:14:38.295Z,99.90
2018-05-04T21:17:06.639Z,99.90
2018-05-04T21:19:34.830Z,99.90
2018-05-04T21:22:02.549Z,99.90
2018-05-04T21:24:31.138Z,99.90
2018-05-04T21:26:58.718Z,99.90
2018-05-04T21:29:26.523Z,99.90
2018-05-04T21:31:54.840Z,99.90
2018-05-04T21:34:22.400Z,99.90
2018-05-04T21:36:50.109Z,99.90
2018-05-04T21:39:17.673Z,99.90
2018-05-04T21:41:45.232Z,99.90
2018-05-04T21:44:13.288Z,99.90
2018-05-04T21:46:40.844Z,99.90
2018-05-04T21:49:08.748Z,99.90
2018-05-04T21:51:36.541Z,99.90
2018-05-04T21:54:04.100Z,99.90
2018-05-04T21:56:32.021Z,99.90
2018-05-04T21:59:00.550Z,99.90
2018-05-04T22:01:28.397Z,99.90
2018-05-04T22:03:56.005Z,99.90
2018-05-04T22:06:23.940Z,99.90
2018-05-04T22:08:51.497Z,99.90
2018-05-04T22:11:19.360Z,99.90
2018-05-04T22:13:46.958Z,99.90
2018-05-04T22:16:14.874Z,99.90
2018-05-04T22:18:42.761Z,99.90
2018-05-04T22:21:10.367Z,99.90
2018-05-04T22:23:39.964Z,99.90
2018-05-04T22:26:07.690Z,99.90
2018-05-04T22:28:35.488Z,99.90
2018-05-04T22:31:03.272Z,99.90
2018-05-04T22:33:30.960Z,99.90
2018-05-04T22:35:58.716Z,99.90
2018-05-04T22:38:26.277Z,99.90
2018-05-04T22:40:53.985Z,99.90
2018-05-04T22:43:22.071Z,99.90
2018-05-04T22:45:49.696Z,99.90
2018-05-04T22:48:17.251Z,99.90
2018-05-04T22:50:44.867Z,99.90
2018-05-04T22:53:13.186Z,99.90
2018-05-04T22:55:40.735Z,99.90
2018-05-04T22:58:08.331Z,99.90
2018-05-04T23:00:36.053Z,99.90
2018-05-04T23:03:03.615Z,99.90
2018-05-04T23:05:31.284Z,99.90
2018-05-04T23:07:58.852Z,99.90
2018-05-04T23:10:26.600Z,99.90
2018-05-04T23:12:54.197Z,99.90
2018-05-04T23:15:21.855Z,99.90
2018-05-04T23:17:49.492Z,99.90
2018-05-04T23:20:17.388Z,99.90
2018-05-04T23:22:44.941Z,99.90
2018-05-04T23:25:12.708Z,99.90
2018-05-04T23:27:40.301Z,99.90
2018-05-04T23:30:07.852Z,99.90
2018-05-04T23:32:36.237Z,99.90
2018-05-04T23:35:03.826Z,99.90
2018-05-04T23:37:31.371Z,99.90
2018-05-04T23:39:59.090Z,99.90
2018-05-04T23:42:26.687Z,99.90
2018-05-04T23:44:54.236Z,99.90
2018-05-04T23:47:22.552Z,99.90
2018-05-04T23:49:50.323Z,99.90
2018-05-04T23:52:17.999Z,99.90
2018-05-04T23:54:45.820Z,99.90
2018-05-04T23:57:13.412Z,99.90
2018-05-04T23:59:40.972Z,99.90
